Time;durP1;ratioP1;P1;durP2;ratioP2;P2;SDS_P1;SDS_P2;PMS_P1;PMS_P2;Temp;Humidity;BMP_temperature;BMP_pressure;BME280_temperature;BME280_humidity;BME280_pressure;Samples;Min_cycle;Max_cycle;Signal;HPM_P1;HPM_P2
2021/09/08 00:07:20;;;;;;;10.43;6.90;;;15.80;99.90;;;;;;20747133;28;20029;-77
2021/09/08 00:17:21;;;;;;;10.00;6.37;;;15.80;99.90;;;;;;20746180;28;20168;-75
2021/09/08 00:27:22;;;;;;;9.43;6.80;;;15.60;99.90;;;;;;20745435;28;20038;-77
2021/09/08 00:37:23;;;;;;;10.20;6.57;;;15.60;99.90;;;;;;20744842;28;20036;-76
2021/09/08 00:47:24;;;;;;;14.27;7.03;;;15.60;99.90;;;;;;20744139;28;20118;-76
2021/09/08 00:57:25;;;;;;;11.77;6.50;;;15.40;99.90;;;;;;20743496;28;20072;-78
2021/09/08 01:07:26;;;;;;;10.40;6.45;;;15.20;99.90;;;;;;20743209;28;20117;-77
2021/09/08 01:17:28;;;;;;;11.60;6.65;;;15.10;99.90;;;;;;20724814;28;20037;-77
2021/09/08 01:27:29;;;;;;;16.50;6.97;;;15.00;99.90;;;;;;20742316;28;20586;-76
2021/09/08 01:37:29;;;;;;;12.17;7.13;;;14.80;99.90;;;;;;20741574;28;20033;-76
2021/09/08 01:47:30;;;;;;;13.43;8.03;;;14.50;99.90;;;;;;20741465;28;20429;-76
2021/09/08 01:57:32;;;;;;;12.07;7.33;;;14.50;99.90;;;;;;20740981;28;20038;-77
2021/09/08 02:07:33;;;;;;;12.75;7.45;;;14.30;99.90;;;;;;20740704;28;20038;-76
2021/09/08 02:17:34;;;;;;;13.97;7.37;;;14.00;99.90;;;;;;20756008;28;20071;-76
2021/09/08 02:27:35;;;;;;;14.43;7.20;;;14.00;99.90;;;;;;20755163;28;20033;-76
2021/09/08 02:37:36;;;;;;;11.03;7.77;;;13.90;99.90;;;;;;20754198;28;20030;-76
2021/09/08 02:47:38;;;;;;;18.53;6.67;;;13.80;99.90;;;;;;20753411;28;20100;-77
2021/09/08 02:57:38;;;;;;;;;;;13.80;99.90;;;;;;20753284;28;20033;-75
2021/09/08 03:07:39;;;;;;;11.93;7.63;;;13.70;99.90;;;;;;20752016;28;19909;-76
2021/09/08 03:17:40;;;;;;;11.63;6.87;;;13.30;99.90;;;;;;20751141;28;20041;-77
2021/09/08 03:27:41;;;;;;;17.83;7.73;;;13.20;99.90;;;;;;20750462;28;20030;-76
2021/09/08 03:37:42;;;;;;;17.37;7.40;;;13.00;99.90;;;;;;20749407;28;20117;-75
2021/09/08 03:47:43;;;;;;;10.77;7.20;;;12.90;99.90;;;;;;20748885;28;20076;-75
2021/09/08 03:57:44;;;;;;;28.20;8.20;;;13.00;99.90;;;;;;20763487;28;20381;-76
2021/09/08 04:07:44;;;;;;;10.63;7.13;;;13.10;99.90;;;;;;20747190;28;20105;-75
2021/09/08 04:17:45;;;;;;;12.90;7.63;;;13.00;99.90;;;;;;20746386;28;20172;-76
2021/09/08 04:27:46;;;;;;;13.83;7.53;;;12.50;99.90;;;;;;20745951;28;20036;-76
2021/09/08 04:37:47;;;;;;;17.63;8.10;;;12.30;99.90;;;;;;20744686;28;20030;-77
2021/09/08 04:47:48;;;;;;;13.40;7.40;;;12.50;99.90;;;;;;20752691;28;20087;-76
2021/09/08 04:57:48;;;;;;;14.20;8.37;;;12.50;99.90;;;;;;20758727;28;20377;-75
2021/09/08 05:07:49;;;;;;;12.30;7.53;;;12.60;99.90;;;;;;20743203;28;20045;-74
2021/09/08 05:17:50;;;;;;;11.30;7.40;;;12.70;99.90;;;;;;20742486;28;20100;-75
2021/09/08 05:27:51;;;;;;;11.70;7.27;;;12.90;99.90;;;;;;20772930;28;20083;-76
2021/09/08 05:37:52;;;;;;;10.30;6.37;;;13.10;99.90;;;;;;20801544;28;20451;-75
2021/09/08 05:47:53;;;;;;;14.43;7.47;;;13.30;99.90;;;;;;20813288;28;20033;-75
2021/09/08 05:57:53;;;;;;;12.40;7.03;;;13.40;99.90;;;;;;20837150;28;20179;-75
2021/09/08 06:07:54;;;;;;;15.10;8.60;;;13.80;99.90;;;;;;20837047;28;20379;-76
2021/09/08 06:17:55;;;;;;;14.27;8.60;;;14.00;99.90;;;;;;20835643;28;20048;-75
2021/09/08 06:27:56;;;;;;;12.87;8.97;;;14.50;99.90;;;;;;20844442;28;20030;-75
2021/09/08 06:37:57;;;;;;;16.80;10.23;;;15.00;99.90;;;;;;20834320;28;20619;-76
2021/09/08 06:47:57;;;;;;;13.53;9.20;;;15.50;99.90;;;;;;20833340;28;20051;-75
2021/09/08 06:57:58;;;;;;;16.23;9.70;;;15.70;99.90;;;;;;20814440;28;20057;-76
2021/09/08 07:08:01;;;;;;;13.50;8.90;;;15.70;99.90;;;;;;20832073;28;20038;-75
2021/09/08 07:18:02;;;;;;;12.30;8.57;;;16.30;99.90;;;;;;20822805;28;20033;-77
2021/09/08 07:28:04;;;;;;;15.17;9.97;;;17.00;99.90;;;;;;20799547;28;20022;-76
2021/09/08 07:38:04;;;;;;;15.93;10.13;;;17.40;99.90;;;;;;20787439;28;20041;-76
2021/09/08 07:48:06;;;;;;;15.53;9.83;;;18.00;99.90;;;;;;20737374;28;20054;-76
2021/09/08 07:58:07;;;;;;;15.33;9.20;;;18.50;99.90;;;;;;20760635;28;20229;-76
2021/09/08 08:08:08;;;;;;;16.70;9.48;;;19.70;99.90;;;;;;20739243;28;20036;-76
2021/09/08 08:18:09;;;;;;;13.17;8.40;;;20.00;99.90;;;;;;20733480;28;20116;-75
2021/09/08 08:28:10;;;;;;;13.45;8.73;;;21.70;99.90;;;;;;20707358;28;20045;-75
2021/09/08 08:38:11;;;;;;;16.83;9.27;;;21.40;99.90;;;;;;20723229;28;20030;-75
2021/09/08 08:48:12;;;;;;;18.90;9.13;;;21.60;99.90;;;;;;20724598;28;20120;-75
2021/09/08 08:58:13;;;;;;;14.73;8.90;;;21.50;99.90;;;;;;20721576;28;20038;-75
2021/09/08 09:08:16;;;;;;;16.57;8.53;;;22.30;99.90;;;;;;20722252;28;20037;-75
2021/09/08 09:18:18;;;;;;;13.13;8.93;;;22.80;99.90;;;;;;20715294;28;20048;-76
2021/09/08 09:28:19;;;;;;;14.48;8.30;;;22.70;99.90;;;;;;20717578;28;20521;-76
2021/09/08 09:38:20;;;;;;;14.33;8.17;;;23.40;99.90;;;;;;20735316;28;20124;-76
2021/09/08 09:48:21;;;;;;;14.30;7.82;;;24.70;99.90;;;;;;20759952;28;20037;-75
2021/09/08 09:58:22;;;;;;;;;;;25.20;99.90;;;;;;20802306;28;20029;-76
2021/09/08 10:08:26;;;;;;;12.27;7.55;;;25.50;99.90;;;;;;20800684;28;19920;-74
2021/09/08 10:18:28;;;;;;;11.93;6.28;;;25.40;99.90;;;;;;20796718;28;20041;-75
2021/09/08 10:28:29;;;;;;;13.35;6.75;;;25.80;99.90;;;;;;20720619;28;20045;-76
2021/09/08 10:38:32;;;;;;;7.80;6.00;;;27.20;99.90;;;;;;20734633;28;20757;-76
2021/09/08 10:48:36;;;;;;;7.55;6.00;;;27.10;99.90;;;;;;20734216;28;20408;-76
2021/09/08 10:58:58;;;;;;;7.78;5.43;;;27.00;99.90;;;;;;20738205;28;20040;-76
2021/09/08 11:09:01;;;;;;;9.25;5.72;;;27.40;99.90;;;;;;20795937;28;20104;-77
2021/09/08 11:19:07;;;;;;;8.77;5.35;;;28.00;99.90;;;;;;20749917;28;20030;-76
2021/09/08 11:29:14;;;;;;;9.80;6.07;;;28.50;99.90;;;;;;20740907;28;20041;-77
2021/09/08 11:39:16;;;;;;;10.90;6.05;;;28.10;99.90;;;;;;20769989;28;20042;-76
2021/09/08 11:49:17;;;;;;;11.35;5.43;;;28.70;99.90;;;;;;21050104;22;20454;-78
2021/09/08 11:59:28;;;;;;;11.88;5.63;;;29.40;99.90;;;;;;21028062;28;20029;-79
2021/09/08 12:09:33;;;;;;;8.27;5.40;;;28.90;99.90;;;;;;21016271;28;20175;-78
2021/09/08 12:19:43;;;;;;;8.45;5.47;;;28.50;99.90;;;;;;21014530;28;20111;-79
2021/09/08 12:29:47;;;;;;;10.52;4.50;;;29.90;99.90;;;;;;20989135;28;20033;-79
2021/09/08 12:39:51;;;;;;;10.57;4.32;;;29.40;99.90;;;;;;20996820;28;20105;-79
2021/09/08 12:49:53;;;;;;;7.38;4.47;;;29.10;99.90;;;;;;20987835;28;20064;-79
2021/09/08 12:59:54;;;;;;;7.88;4.95;;;29.70;99.90;;;;;;20994979;28;20032;-79
2021/09/08 13:09:54;;;;;;;6.80;4.60;;;29.70;99.90;;;;;;20977868;28;20401;-78
2021/09/08 13:19:55;;;;;;;7.30;4.87;;;31.20;99.90;;;;;;20994275;28;20344;-78
2021/09/08 13:29:56;;;;;;;6.28;4.15;;;31.00;99.90;;;;;;20997923;28;20279;-79
2021/09/08 13:39:57;;;;;;;9.50;4.75;;;29.90;99.90;;;;;;20977665;28;20040;-79
2021/09/08 13:49:58;;;;;;;9.30;4.73;;;30.40;99.90;;;;;;20979779;28;20033;-77
2021/09/08 13:59:58;;;;;;;8.85;4.40;;;30.80;99.90;;;;;;20968910;28;20294;-76
2021/09/08 14:09:59;;;;;;;7.10;3.92;;;30.20;99.90;;;;;;20945208;28;20430;-76
2021/09/08 14:20:00;;;;;;;5.70;4.30;;;30.70;99.90;;;;;;20922555;28;20032;-76
2021/09/08 14:30:01;;;;;;;6.38;3.85;;;31.40;99.90;;;;;;20912559;28;20305;-76
2021/09/08 14:40:03;;;;;;;5.10;3.63;;;31.40;99.90;;;;;;20883894;28;20025;-76
2021/09/08 14:50:04;;;;;;;10.32;4.22;;;31.00;99.90;;;;;;20900856;28;20068;-76
2021/09/08 15:00:06;;;;;;;9.55;4.82;;;30.40;99.90;;;;;;20880041;28;20040;-75
2021/09/08 15:10:08;;;;;;;9.40;4.40;;;30.60;99.90;;;;;;20881285;28;20598;-76
2021/09/08 15:20:10;;;;;;;8.15;4.00;;;30.60;99.90;;;;;;20899627;28;20028;-77
2021/09/08 15:30:11;;;;;;;6.40;3.53;;;30.50;99.90;;;;;;20979964;28;20078;-76
2021/09/08 15:40:14;;;;;;;5.85;3.50;;;30.00;99.90;;;;;;20983010;28;20123;-77
2021/09/08 15:50:15;;;;;;;9.50;4.55;;;30.40;99.90;;;;;;20946694;28;20033;-77
2021/09/08 16:00:17;;;;;;;6.47;4.55;;;29.40;99.90;;;;;;20964465;28;20040;-78
2021/09/08 16:10:18;;;;;;;6.80;4.80;;;28.50;99.90;;;;;;20922875;28;20047;-78
2021/09/08 16:20:19;;;;;;;4.97;3.53;;;28.10;99.90;;;;;;20941181;28;20562;-79
2021/09/08 16:30:20;;;;;;;11.85;3.97;;;27.80;99.90;;;;;;20999070;28;20040;-78
2021/09/08 16:40:21;;;;;;;10.57;4.88;;;27.60;99.90;;;;;;21002723;28;20052;-78
2021/09/08 16:50:22;;;;;;;8.60;4.68;;;27.20;99.90;;;;;;20953846;28;20128;-77
2021/09/08 17:00:24;;;;;;;12.40;5.32;;;26.20;99.90;;;;;;20906816;28;20115;-78
2021/09/08 17:10:24;;;;;;;6.97;5.13;;;25.30;99.90;;;;;;20905977;28;20035;-78
2021/09/08 17:20:25;;;;;;;9.20;5.38;;;24.80;99.90;;;;;;20903927;28;20040;-77
2021/09/08 17:30:26;;;;;;;;;;;24.30;99.90;;;;;;20972925;28;20028;-78
2021/09/08 17:40:27;;;;;;;9.38;5.30;;;23.90;99.90;;;;;;21008164;22;19903;-77
2021/09/08 17:50:32;;;;;;;10.38;4.95;;;23.10;99.90;;;;;;20899898;28;20044;-77
2021/09/08 18:00:33;;;;;;;15.30;5.63;;;22.80;99.90;;;;;;20948042;28;20040;-76
2021/09/08 18:10:35;;;;;;;10.20;5.68;;;22.70;99.90;;;;;;20977192;28;20029;-77
2021/09/08 18:20:36;;;;;;;9.60;5.20;;;22.60;99.90;;;;;;20935174;28;20043;-76
2021/09/08 18:30:41;;;;;;;10.13;5.20;;;22.40;99.90;;;;;;20898212;28;20649;-76
2021/09/08 18:40:42;;;;;;;10.10;5.57;;;22.50;99.90;;;;;;20918446;28;20028;-76
2021/09/08 18:50:43;;;;;;;6.20;4.87;;;22.40;99.90;;;;;;20912620;28;20060;-76
2021/09/08 19:00:44;;;;;;;8.33;5.23;;;21.70;99.90;;;;;;20909950;28;20029;-75
2021/09/08 19:10:45;;;;;;;7.07;5.40;;;21.50;99.90;;;;;;20907582;28;20337;-75
2021/09/08 19:20:46;;;;;;;9.77;5.47;;;21.30;99.90;;;;;;20935791;28;20036;-76
2021/09/08 19:30:49;;;;;;;7.03;5.13;;;21.20;99.90;;;;;;20975530;28;20043;-77
2021/09/08 19:40:51;;;;;;;8.13;5.13;;;21.00;99.90;;;;;;20985718;28;20287;-77
2021/09/08 19:50:52;;;;;;;9.43;5.88;;;21.00;99.90;;;;;;20972384;28;20055;-75
2021/09/08 20:00:53;;;;;;;8.73;6.03;;;19.80;99.90;;;;;;20970223;28;20036;-76
2021/09/08 20:10:54;;;;;;;12.17;6.83;;;20.00;99.90;;;;;;20985945;28;20051;-76
2021/09/08 20:20:55;;;;;;;12.27;5.60;;;19.40;99.90;;;;;;20945425;28;20094;-76
2021/09/08 20:30:56;;;;;;;9.65;5.70;;;19.60;99.90;;;;;;20893890;28;20119;-77
2021/09/08 20:40:57;;;;;;;9.23;6.33;;;18.70;99.90;;;;;;20888844;28;20449;-76
2021/09/08 20:50:58;;;;;;;9.73;6.17;;;18.70;99.90;;;;;;20885752;28;20104;-76
2021/09/08 21:01:00;;;;;;;7.73;5.80;;;18.50;99.90;;;;;;20886103;28;20036;-75
2021/09/08 21:11:01;;;;;;;9.70;6.53;;;18.60;99.90;;;;;;20897598;28;20095;-76
2021/09/08 21:21:02;;;;;;;10.85;6.75;;;18.00;99.90;;;;;;20922619;28;20036;-76
2021/09/08 21:31:03;;;;;;;13.53;6.67;;;18.30;99.90;;;;;;20975424;28;20175;-76
2021/09/08 21:41:04;;;;;;;9.07;6.40;;;18.10;99.90;;;;;;20924178;28;20509;-75
2021/09/08 21:51:05;;;;;;;10.30;7.10;;;17.80;99.90;;;;;;20925960;28;20036;-76
2021/09/08 22:01:06;;;;;;;12.00;6.70;;;17.90;99.90;;;;;;20907768;28;20064;-77
2021/09/08 22:11:07;;;;;;;11.47;7.27;;;17.70;99.90;;;;;;20896926;28;20068;-77
2021/09/08 22:21:08;;;;;;;10.60;7.37;;;17.70;99.90;;;;;;20887311;28;20086;-76
2021/09/08 22:31:09;;;;;;;10.37;7.23;;;17.60;99.90;;;;;;20953647;28;20017;-76
2021/09/08 22:41:09;;;;;;;11.07;7.37;;;17.30;99.90;;;;;;20962390;28;20031;-77
2021/09/08 22:51:10;;;;;;;7.93;6.43;;;17.70;99.90;;;;;;20937458;28;20094;-75
2021/09/08 23:01:11;;;;;;;11.27;7.33;;;17.90;99.90;;;;;;20928668;28;20025;-75
2021/09/08 23:11:13;;;;;;;11.00;7.60;;;18.10;99.90;;;;;;20917932;28;20025;-76
2021/09/08 23:21:15;;;;;;;11.82;7.40;;;18.00;99.90;;;;;;20917076;28;20032;-76
2021/09/08 23:31:16;;;;;;;;;;;18.00;99.90;;;;;;20916929;28;20483;-76
2021/09/08 23:41:18;;;;;;;11.88;7.10;;;18.10;99.90;;;;;;20914570;28;19912;-75
2021/09/08 23:51:19;;;;;;;10.67;7.17;;;17.60;99.90;;;;;;20921231;28;20356;-75
